sensor_id;sensor_type;location;lat;lon;timestamp;temperature;humidity
22787;DHT22;63134;52.020;4.714;2023-05-07T00:01:37;15.50;99.90
22787;DHT22;63134;52.020;4.714;2023-05-07T00:04:22;15.60;99.90
22787;DHT22;63134;52.020;4.714;2023-05-07T00:07:08;15.60;99.90
22787;DHT22;63134;52.020;4.714;2023-05-07T00:09:54;15.60;99.90
22787;DHT22;63134;52.020;4.714;2023-05-07T00:12:40;15.60;99.90
22787;DHT22;63134;52.020;4.714;2023-05-07T00:15:29;15.60;99.90
22787;DHT22;63134;52.020;4.714;2023-05-07T00:18:15;15.70;99.90
22787;DHT22;63134;52.020;4.714;2023-05-07T00:21:01;15.70;99.90
22787;DHT22;63134;52.020;4.714;2023-05-07T00:23:47;15.70;99.90
22787;DHT22;63134;52.020;4.714;2023-05-07T00:26:33;15.70;99.90
22787;DHT22;63134;52.020;4.714;2023-05-07T00:29:18;15.80;99.90
22787;DHT22;63134;52.020;4.714;2023-05-07T00:32:04;15.80;99.90
22787;DHT22;63134;52.020;4.714;2023-05-07T00:34:50;15.80;99.90
22787;DHT22;63134;52.020;4.714;2023-05-07T00:37:36;15.80;99.90
22787;DHT22;63134;52.020;4.714;2023-05-07T00:40:22;15.90;99.90
22787;DHT22;63134;52.020;4.714;2023-05-07T00:43:07;15.90;99.90
22787;DHT22;63134;52.020;4.714;2023-05-07T00:45:54;15.90;99.90
22787;DHT22;63134;52.020;4.714;2023-05-07T00:48:40;15.90;99.90
22787;DHT22;63134;52.020;4.714;2023-05-07T00:51:26;15.90;99.90
22787;DHT22;63134;52.020;4.714;2023-05-07T00:54:13;15.90;99.90
22787;DHT22;63134;52.020;4.714;2023-05-07T00:56:58;15.90;99.90
22787;DHT22;63134;52.020;4.714;2023-05-07T00:59:44;15.90;99.90
22787;DHT22;63134;52.020;4.714;2023-05-07T01:02:29;15.90;99.90
22787;DHT22;63134;52.020;4.714;2023-05-07T01:05:17;15.90;99.90
22787;DHT22;63134;52.020;4.714;2023-05-07T01:08:04;15.90;99.90
22787;DHT22;63134;52.020;4.714;2023-05-07T01:10:51;16.00;99.80
22787;DHT22;63134;52.020;4.714;2023-05-07T01:13:37;15.90;99.60
22787;DHT22;63134;52.020;4.714;2023-05-07T01:16:23;15.90;99.50
22787;DHT22;63134;52.020;4.714;2023-05-07T01:19:10;15.90;99.60
22787;DHT22;63134;52.020;4.714;2023-05-07T01:22:02;15.90;99.70
22787;DHT22;63134;52.020;4.714;2023-05-07T01:24:52;15.90;99.80
22787;DHT22;63134;52.020;4.714;2023-05-07T01:27:37;15.90;99.60
22787;DHT22;63134;52.020;4.714;2023-05-07T01:30:23;15.90;99.80
22787;DHT22;63134;52.020;4.714;2023-05-07T01:33:10;15.90;99.70
22787;DHT22;63134;52.020;4.714;2023-05-07T01:35:57;15.90;99.60
22787;DHT22;63134;52.020;4.714;2023-05-07T01:38:45;15.90;99.50
22787;DHT22;63134;52.020;4.714;2023-05-07T01:41:31;15.90;99.50
22787;DHT22;63134;52.020;4.714;2023-05-07T01:44:23;15.80;99.40
22787;DHT22;63134;52.020;4.714;2023-05-07T01:47:09;15.80;99.50
22787;DHT22;63134;52.020;4.714;2023-05-07T01:49:55;15.70;99.20
22787;DHT22;63134;52.020;4.714;2023-05-07T01:52:41;15.70;99.10
22787;DHT22;63134;52.020;4.714;2023-05-07T01:55:27;15.70;99.10
22787;DHT22;63134;52.020;4.714;2023-05-07T01:58:12;15.70;99.30
22787;DHT22;63134;52.020;4.714;2023-05-07T02:00:58;15.70;99.50
22787;DHT22;63134;52.020;4.714;2023-05-07T02:03:44;15.70;99.70
22787;DHT22;63134;52.020;4.714;2023-05-07T02:06:38;15.70;99.90
22787;DHT22;63134;52.020;4.714;2023-05-07T02:09:25;15.70;99.90
22787;DHT22;63134;52.020;4.714;2023-05-07T02:12:11;15.70;99.90
22787;DHT22;63134;52.020;4.714;2023-05-07T02:14:56;15.70;99.90
22787;DHT22;63134;52.020;4.714;2023-05-07T02:18:01;15.70;99.90
22787;DHT22;63134;52.020;4.714;2023-05-07T02:20:47;15.80;99.90
22787;DHT22;63134;52.020;4.714;2023-05-07T02:23:33;15.70;99.90
22787;DHT22;63134;52.020;4.714;2023-05-07T02:26:20;15.70;99.90
22787;DHT22;63134;52.020;4.714;2023-05-07T02:29:06;15.70;99.90
22787;DHT22;63134;52.020;4.714;2023-05-07T02:31:52;15.70;99.90
22787;DHT22;63134;52.020;4.714;2023-05-07T02:34:38;15.70;99.90
22787;DHT22;63134;52.020;4.714;2023-05-07T02:37:23;15.70;99.90
22787;DHT22;63134;52.020;4.714;2023-05-07T02:40:09;15.70;99.90
22787;DHT22;63134;52.020;4.714;2023-05-07T02:42:55;15.70;99.90
22787;DHT22;63134;52.020;4.714;2023-05-07T02:45:41;15.70;99.90
22787;DHT22;63134;52.020;4.714;2023-05-07T02:48:26;15.80;99.90
22787;DHT22;63134;52.020;4.714;2023-05-07T02:51:12;15.80;99.90
22787;DHT22;63134;52.020;4.714;2023-05-07T02:54:08;15.80;99.90
22787;DHT22;63134;52.020;4.714;2023-05-07T02:56:54;15.80;99.90
22787;DHT22;63134;52.020;4.714;2023-05-07T02:59:39;15.80;99.90
22787;DHT22;63134;52.020;4.714;2023-05-07T03:02:25;15.80;99.90
22787;DHT22;63134;52.020;4.714;2023-05-07T03:05:10;15.80;99.90
22787;DHT22;63134;52.020;4.714;2023-05-07T03:07:57;15.80;99.90
22787;DHT22;63134;52.020;4.714;2023-05-07T03:10:42;15.80;99.90
22787;DHT22;63134;52.020;4.714;2023-05-07T03:13:28;15.90;99.90
22787;DHT22;63134;52.020;4.714;2023-05-07T03:16:13;15.90;99.90
22787;DHT22;63134;52.020;4.714;2023-05-07T03:18:59;15.90;99.90
22787;DHT22;63134;52.020;4.714;2023-05-07T03:21:44;15.90;99.90
22787;DHT22;63134;52.020;4.714;2023-05-07T03:24:30;15.90;99.90
22787;DHT22;63134;52.020;4.714;2023-05-07T03:27:16;15.90;99.90
22787;DHT22;63134;52.020;4.714;2023-05-07T03:30:03;15.90;99.90
22787;DHT22;63134;52.020;4.714;2023-05-07T03:32:49;15.90;99.90
22787;DHT22;63134;52.020;4.714;2023-05-07T03:35:35;15.90;99.90
22787;DHT22;63134;52.020;4.714;2023-05-07T03:38:21;15.90;99.90
22787;DHT22;63134;52.020;4.714;2023-05-07T03:41:10;15.90;99.90
22787;DHT22;63134;52.020;4.714;2023-05-07T03:43:56;16.00;99.90
22787;DHT22;63134;52.020;4.714;2023-05-07T03:46:42;15.90;99.90
22787;DHT22;63134;52.020;4.714;2023-05-07T03:49:30;15.90;99.90
22787;DHT22;63134;52.020;4.714;2023-05-07T03:52:17;15.90;99.90
22787;DHT22;63134;52.020;4.714;2023-05-07T03:55:08;16.00;99.90
22787;DHT22;63134;52.020;4.714;2023-05-07T03:57:56;16.00;99.90
22787;DHT22;63134;52.020;4.714;2023-05-07T04:00:43;15.90;99.90
22787;DHT22;63134;52.020;4.714;2023-05-07T04:03:39;16.00;99.90
22787;DHT22;63134;52.020;4.714;2023-05-07T04:06:25;16.00;99.90
22787;DHT22;63134;52.020;4.714;2023-05-07T04:09:11;16.00;99.90
22787;DHT22;63134;52.020;4.714;2023-05-07T04:11:56;16.00;99.90
22787;DHT22;63134;52.020;4.714;2023-05-07T04:14:42;16.00;99.90
22787;DHT22;63134;52.020;4.714;2023-05-07T04:17:30;16.00;99.90
22787;DHT22;63134;52.020;4.714;2023-05-07T04:20:16;16.00;99.90
22787;DHT22;63134;52.020;4.714;2023-05-07T04:23:07;16.00;99.90
22787;DHT22;63134;52.020;4.714;2023-05-07T04:25:53;16.00;99.90
22787;DHT22;63134;52.020;4.714;2023-05-07T04:28:56;16.00;99.90
22787;DHT22;63134;52.020;4.714;2023-05-07T04:31:50;16.00;99.90
22787;DHT22;63134;52.020;4.714;2023-05-07T04:34:36;16.00;99.90
22787;DHT22;63134;52.020;4.714;2023-05-07T04:37:22;16.10;99.90
22787;DHT22;63134;52.020;4.714;2023-05-07T04:40:07;16.10;99.90
22787;DHT22;63134;52.020;4.714;2023-05-07T04:42:53;16.10;99.90
22787;DHT22;63134;52.020;4.714;2023-05-07T04:45:40;16.10;99.90
22787;DHT22;63134;52.020;4.714;2023-05-07T04:48:26;16.10;99.90
22787;DHT22;63134;52.020;4.714;2023-05-07T04:51:15;16.10;99.90
22787;DHT22;63134;52.020;4.714;2023-05-07T04:54:00;16.10;99.90
22787;DHT22;63134;52.020;4.714;2023-05-07T04:56:48;16.10;99.90
22787;DHT22;63134;52.020;4.714;2023-05-07T04:59:34;16.20;99.90
22787;DHT22;63134;52.020;4.714;2023-05-07T05:02:19;16.20;99.90
22787;DHT22;63134;52.020;4.714;2023-05-07T05:05:06;16.20;99.90
22787;DHT22;63134;52.020;4.714;2023-05-07T05:07:52;16.30;99.90
22787;DHT22;63134;52.020;4.714;2023-05-07T05:10:40;16.30;99.90
22787;DHT22;63134;52.020;4.714;2023-05-07T05:13:30;16.30;99.90
22787;DHT22;63134;52.020;4.714;2023-05-07T05:16:18;16.40;99.90
22787;DHT22;63134;52.020;4.714;2023-05-07T05:19:03;16.40;99.90
22787;DHT22;63134;52.020;4.714;2023-05-07T05:21:51;16.50;99.90
22787;DHT22;63134;52.020;4.714;2023-05-07T05:24:37;16.50;99.90
22787;DHT22;63134;52.020;4.714;2023-05-07T05:27:22;16.60;99.90
22787;DHT22;63134;52.020;4.714;2023-05-07T05:30:08;16.70;99.90
22787;DHT22;63134;52.020;4.714;2023-05-07T05:32:56;16.70;99.90
22787;DHT22;63134;52.020;4.714;2023-05-07T05:35:42;16.80;99.90
22787;DHT22;63134;52.020;4.714;2023-05-07T05:38:30;16.80;99.90
22787;DHT22;63134;52.020;4.714;2023-05-07T05:41:15;16.90;99.90
22787;DHT22;63134;52.020;4.714;2023-05-07T05:44:01;16.90;99.90
22787;DHT22;63134;52.020;4.714;2023-05-07T05:46:46;16.90;99.90
22787;DHT22;63134;52.020;4.714;2023-05-07T05:49:32;17.00;99.90
22787;DHT22;63134;52.020;4.714;2023-05-07T05:52:18;17.00;99.70
22787;DHT22;63134;52.020;4.714;2023-05-07T05:55:05;17.10;99.60
22787;DHT22;63134;52.020;4.714;2023-05-07T05:57:53;17.10;99.20
22787;DHT22;63134;52.020;4.714;2023-05-07T06:00:39;17.10;99.20
22787;DHT22;63134;52.020;4.714;2023-05-07T06:03:25;17.10;99.10
22787;DHT22;63134;52.020;4.714;2023-05-07T06:06:12;17.20;98.80
22787;DHT22;63134;52.020;4.714;2023-05-07T06:08:57;17.20;98.70
22787;DHT22;63134;52.020;4.714;2023-05-07T06:11:49;17.20;98.70
22787;DHT22;63134;52.020;4.714;2023-05-07T06:14:35;17.20;98.70
22787;DHT22;63134;52.020;4.714;2023-05-07T06:17:21;17.30;98.80
22787;DHT22;63134;52.020;4.714;2023-05-07T06:20:08;17.40;98.60
22787;DHT22;63134;52.020;4.714;2023-05-07T06:22:54;17.50;98.70
22787;DHT22;63134;52.020;4.714;2023-05-07T06:25:39;17.50;98.30
22787;DHT22;63134;52.020;4.714;2023-05-07T06:28:26;17.50;98.10
22787;DHT22;63134;52.020;4.714;2023-05-07T06:31:19;17.50;98.00
22787;DHT22;63134;52.020;4.714;2023-05-07T06:34:15;17.60;97.90
22787;DHT22;63134;52.020;4.714;2023-05-07T06:37:01;17.60;97.70
22787;DHT22;63134;52.020;4.714;2023-05-07T06:40:05;17.70;97.90
22787;DHT22;63134;52.020;4.714;2023-05-07T06:42:53;17.70;97.50
22787;DHT22;63134;52.020;4.714;2023-05-07T06:46:01;17.70;97.50
22787;DHT22;63134;52.020;4.714;2023-05-07T06:48:48;17.70;97.00
22787;DHT22;63134;52.020;4.714;2023-05-07T06:51:33;17.80;96.80
22787;DHT22;63134;52.020;4.714;2023-05-07T06:54:22;17.80;96.80
22787;DHT22;63134;52.020;4.714;2023-05-07T06:57:08;17.80;97.10
22787;DHT22;63134;52.020;4.714;2023-05-07T06:59:54;17.90;96.70
22787;DHT22;63134;52.020;4.714;2023-05-07T07:02:40;18.00;96.80
22787;DHT22;63134;52.020;4.714;2023-05-07T07:05:27;18.10;96.70
22787;DHT22;63134;52.020;4.714;2023-05-07T07:08:17;18.10;96.40
22787;DHT22;63134;52.020;4.714;2023-05-07T07:11:03;18.10;96.30
22787;DHT22;63134;52.020;4.714;2023-05-07T07:13:49;18.10;96.20
22787;DHT22;63134;52.020;4.714;2023-05-07T07:16:35;18.20;96.10
22787;DHT22;63134;52.020;4.714;2023-05-07T07:19:21;18.20;96.20
22787;DHT22;63134;52.020;4.714;2023-05-07T07:22:09;18.30;96.10
22787;DHT22;63134;52.020;4.714;2023-05-07T07:24:56;18.40;96.50
22787;DHT22;63134;52.020;4.714;2023-05-07T07:27:45;18.50;96.30
22787;DHT22;63134;52.020;4.714;2023-05-07T07:30:32;18.60;96.20
22787;DHT22;63134;52.020;4.714;2023-05-07T07:33:18;18.80;96.30
22787;DHT22;63134;52.020;4.714;2023-05-07T07:36:05;18.90;96.30
22787;DHT22;63134;52.020;4.714;2023-05-07T07:38:51;19.00;96.00
22787;DHT22;63134;52.020;4.714;2023-05-07T07:41:37;19.00;95.50
22787;DHT22;63134;52.020;4.714;2023-05-07T07:44:22;19.10;95.40
22787;DHT22;63134;52.020;4.714;2023-05-07T07:47:13;19.10;94.50
22787;DHT22;63134;52.020;4.714;2023-05-07T07:50:00;19.10;94.50
22787;DHT22;63134;52.020;4.714;2023-05-07T07:52:45;19.20;94.50
22787;DHT22;63134;52.020;4.714;2023-05-07T07:55:38;19.30;94.40
22787;DHT22;63134;52.020;4.714;2023-05-07T07:58:24;19.30;94.30
22787;DHT22;63134;52.020;4.714;2023-05-07T08:01:10;19.40;94.30
22787;DHT22;63134;52.020;4.714;2023-05-07T08:03:58;19.40;93.80
22787;DHT22;63134;52.020;4.714;2023-05-07T08:06:46;19.50;93.60
22787;DHT22;63134;52.020;4.714;2023-05-07T08:09:32;19.50;93.50
22787;DHT22;63134;52.020;4.714;2023-05-07T08:12:20;19.50;93.40
22787;DHT22;63134;52.020;4.714;2023-05-07T08:15:07;19.60;93.10
22787;DHT22;63134;52.020;4.714;2023-05-07T08:17:52;19.60;92.90
22787;DHT22;63134;52.020;4.714;2023-05-07T08:20:38;19.70;93.40
22787;DHT22;63134;52.020;4.714;2023-05-07T08:23:27;20.00;93.70
22787;DHT22;63134;52.020;4.714;2023-05-07T08:26:13;20.20;93.20
22787;DHT22;63134;52.020;4.714;2023-05-07T08:29:00;20.40;93.10
22787;DHT22;63134;52.020;4.714;2023-05-07T08:31:46;20.50;92.10
22787;DHT22;63134;52.020;4.714;2023-05-07T08:34:31;20.60;92.10
22787;DHT22;63134;52.020;4.714;2023-05-07T08:37:20;20.80;91.50
22787;DHT22;63134;52.020;4.714;2023-05-07T08:40:06;21.00;91.80
22787;DHT22;63134;52.020;4.714;2023-05-07T08:42:57;21.30;91.40
22787;DHT22;63134;52.020;4.714;2023-05-07T08:45:45;21.50;91.00
22787;DHT22;63134;52.020;4.714;2023-05-07T08:48:32;21.70;90.20
22787;DHT22;63134;52.020;4.714;2023-05-07T08:51:29;21.90;89.40
22787;DHT22;63134;52.020;4.714;2023-05-07T08:54:18;22.20;88.10
22787;DHT22;63134;52.020;4.714;2023-05-07T08:57:06;22.50;86.60
22787;DHT22;63134;52.020;4.714;2023-05-07T08:59:53;22.70;85.60
22787;DHT22;63134;52.020;4.714;2023-05-07T09:02:38;22.90;85.00
22787;DHT22;63134;52.020;4.714;2023-05-07T09:05:25;23.10;83.60
22787;DHT22;63134;52.020;4.714;2023-05-07T09:08:14;23.20;82.20
22787;DHT22;63134;52.020;4.714;2023-05-07T09:11:03;23.50;81.30
22787;DHT22;63134;52.020;4.714;2023-05-07T09:13:56;23.60;79.90
22787;DHT22;63134;52.020;4.714;2023-05-07T09:16:43;23.70;78.60
22787;DHT22;63134;52.020;4.714;2023-05-07T09:19:30;23.80;77.80
22787;DHT22;63134;52.020;4.714;2023-05-07T09:22:18;23.90;77.60
22787;DHT22;63134;52.020;4.714;2023-05-07T09:25:14;24.00;76.00
22787;DHT22;63134;52.020;4.714;2023-05-07T09:28:03;24.20;75.50
22787;DHT22;63134;52.020;4.714;2023-05-07T09:30:49;24.40;74.70
22787;DHT22;63134;52.020;4.714;2023-05-07T09:33:35;24.60;73.70
22787;DHT22;63134;52.020;4.714;2023-05-07T09:36:22;24.80;71.90
22787;DHT22;63134;52.020;4.714;2023-05-07T09:39:07;24.80;70.20
22787;DHT22;63134;52.020;4.714;2023-05-07T09:41:53;25.00;69.50
22787;DHT22;63134;52.020;4.714;2023-05-07T09:44:47;25.20;68.60
22787;DHT22;63134;52.020;4.714;2023-05-07T09:47:39;25.30;67.30
22787;DHT22;63134;52.020;4.714;2023-05-07T09:50:29;25.30;65.50
22787;DHT22;63134;52.020;4.714;2023-05-07T09:53:17;25.40;65.10
22787;DHT22;63134;52.020;4.714;2023-05-07T09:56:03;25.60;64.50
22787;DHT22;63134;52.020;4.714;2023-05-07T09:58:52;25.80;63.50
22787;DHT22;63134;52.020;4.714;2023-05-07T10:01:41;25.90;63.10
22787;DHT22;63134;52.020;4.714;2023-05-07T10:04:28;26.00;62.10
22787;DHT22;63134;52.020;4.714;2023-05-07T10:07:16;26.10;61.50
22787;DHT22;63134;52.020;4.714;2023-05-07T10:10:03;26.30;61.20
22787;DHT22;63134;52.020;4.714;2023-05-07T10:12:54;26.40;59.80
22787;DHT22;63134;52.020;4.714;2023-05-07T10:15:47;26.40;59.80
22787;DHT22;63134;52.020;4.714;2023-05-07T10:18:33;26.40;58.80
22787;DHT22;63134;52.020;4.714;2023-05-07T10:21:27;26.50;58.50
22787;DHT22;63134;52.020;4.714;2023-05-07T10:24:30;26.80;58.20
22787;DHT22;63134;52.020;4.714;2023-05-07T10:27:19;27.20;57.10
22787;DHT22;63134;52.020;4.714;2023-05-07T10:33:09;27.60;56.30
22787;DHT22;63134;52.020;4.714;2023-05-07T10:36:01;27.70;55.80
22787;DHT22;63134;52.020;4.714;2023-05-07T10:38:49;27.80;55.00
22787;DHT22;63134;52.020;4.714;2023-05-07T10:41:36;27.80;54.60
22787;DHT22;63134;52.020;4.714;2023-05-07T10:44:26;28.00;54.50
22787;DHT22;63134;52.020;4.714;2023-05-07T10:47:16;28.30;53.90
22787;DHT22;63134;52.020;4.714;2023-05-07T11:02:20;29.00;51.80
22787;DHT22;63134;52.020;4.714;2023-05-07T11:05:22;29.10;51.30
22787;DHT22;63134;52.020;4.714;2023-05-07T11:08:15;29.10;51.20
22787;DHT22;63134;52.020;4.714;2023-05-07T11:11:10;29.20;51.30
22787;DHT22;63134;52.020;4.714;2023-05-07T11:13:55;29.20;50.90
22787;DHT22;63134;52.020;4.714;2023-05-07T11:16:49;29.30;50.80
22787;DHT22;63134;52.020;4.714;2023-05-07T11:19:54;29.50;50.60
22787;DHT22;63134;52.020;4.714;2023-05-07T11:26:50;29.80;49.00
22787;DHT22;63134;52.020;4.714;2023-05-07T11:29:38;29.80;49.00
22787;DHT22;63134;52.020;4.714;2023-05-07T11:32:31;30.10;48.10
22787;DHT22;63134;52.020;4.714;2023-05-07T11:35:22;30.20;46.10
22787;DHT22;63134;52.020;4.714;2023-05-07T11:38:09;29.90;46.60
22787;DHT22;63134;52.020;4.714;2023-05-07T11:40:58;30.30;47.40
22787;DHT22;63134;52.020;4.714;2023-05-07T11:43:58;30.90;46.90
22787;DHT22;63134;52.020;4.714;2023-05-07T11:46:44;31.60;45.50
22787;DHT22;63134;52.020;4.714;2023-05-07T11:49:30;31.70;44.40
22787;DHT22;63134;52.020;4.714;2023-05-07T11:52:16;31.40;43.40
22787;DHT22;63134;52.020;4.714;2023-05-07T11:55:03;30.90;44.10
22787;DHT22;63134;52.020;4.714;2023-05-07T11:57:51;30.70;44.70
22787;DHT22;63134;52.020;4.714;2023-05-07T12:00:36;30.60;45.10
22787;DHT22;63134;52.020;4.714;2023-05-07T12:03:22;30.50;44.20
22787;DHT22;63134;52.020;4.714;2023-05-07T12:06:07;29.90;45.30
22787;DHT22;63134;52.020;4.714;2023-05-07T12:08:53;30.20;46.60
22787;DHT22;63134;52.020;4.714;2023-05-07T12:11:38;31.00;45.90
22787;DHT22;63134;52.020;4.714;2023-05-07T12:14:27;31.00;44.50
22787;DHT22;63134;52.020;4.714;2023-05-07T12:17:14;30.90;44.70
22787;DHT22;63134;52.020;4.714;2023-05-07T12:20:00;30.70;43.80
22787;DHT22;63134;52.020;4.714;2023-05-07T12:22:46;30.00;44.50
22787;DHT22;63134;52.020;4.714;2023-05-07T12:25:43;29.60;45.60
22787;DHT22;63134;52.020;4.714;2023-05-07T12:28:38;29.30;45.90
22787;DHT22;63134;52.020;4.714;2023-05-07T12:31:28;29.20;46.60
22787;DHT22;63134;52.020;4.714;2023-05-07T12:34:13;29.10;47.50
22787;DHT22;63134;52.020;4.714;2023-05-07T12:37:02;29.20;48.10
22787;DHT22;63134;52.020;4.714;2023-05-07T12:39:49;29.30;47.50
22787;DHT22;63134;52.020;4.714;2023-05-07T12:42:39;29.00;47.10
22787;DHT22;63134;52.020;4.714;2023-05-07T12:45:29;28.90;47.70
22787;DHT22;63134;52.020;4.714;2023-05-07T12:48:14;28.50;48.00
22787;DHT22;63134;52.020;4.714;2023-05-07T12:51:01;27.90;49.30
22787;DHT22;63134;52.020;4.714;2023-05-07T12:53:47;27.60;50.50
22787;DHT22;63134;52.020;4.714;2023-05-07T12:56:35;27.30;51.40
22787;DHT22;63134;52.020;4.714;2023-05-07T12:59:34;27.10;51.80
22787;DHT22;63134;52.020;4.714;2023-05-07T13:02:20;26.80;52.20
22787;DHT22;63134;52.020;4.714;2023-05-07T13:05:09;26.60;52.30
22787;DHT22;63134;52.020;4.714;2023-05-07T13:07:58;26.20;52.10
22787;DHT22;63134;52.020;4.714;2023-05-07T13:10:43;25.80;53.10
22787;DHT22;63134;52.020;4.714;2023-05-07T13:13:32;25.50;54.20
22787;DHT22;63134;52.020;4.714;2023-05-07T13:16:18;25.20;55.00
22787;DHT22;63134;52.020;4.714;2023-05-07T13:19:06;24.90;56.10
22787;DHT22;63134;52.020;4.714;2023-05-07T13:21:58;24.70;57.50
22787;DHT22;63134;52.020;4.714;2023-05-07T13:24:43;24.50;58.70
22787;DHT22;63134;52.020;4.714;2023-05-07T13:27:29;24.20;59.70
22787;DHT22;63134;52.020;4.714;2023-05-07T13:30:15;24.00;60.70
22787;DHT22;63134;52.020;4.714;2023-05-07T13:33:01;23.80;61.70
22787;DHT22;63134;52.020;4.714;2023-05-07T13:35:46;23.60;63.00
22787;DHT22;63134;52.020;4.714;2023-05-07T13:38:32;23.40;63.50
22787;DHT22;63134;52.020;4.714;2023-05-07T13:41:18;23.20;64.00
22787;DHT22;63134;52.020;4.714;2023-05-07T13:44:06;23.10;64.70
22787;DHT22;63134;52.020;4.714;2023-05-07T13:46:51;22.70;65.20
22787;DHT22;63134;52.020;4.714;2023-05-07T13:49:37;22.30;67.10
22787;DHT22;63134;52.020;4.714;2023-05-07T13:52:22;22.00;69.10
22787;DHT22;63134;52.020;4.714;2023-05-07T13:55:08;21.70;69.40
22787;DHT22;63134;52.020;4.714;2023-05-07T13:57:55;21.60;69.70
22787;DHT22;63134;52.020;4.714;2023-05-07T14:00:44;21.40;70.00
22787;DHT22;63134;52.020;4.714;2023-05-07T14:03:30;21.20;71.20
22787;DHT22;63134;52.020;4.714;2023-05-07T14:06:18;21.10;72.30
22787;DHT22;63134;52.020;4.714;2023-05-07T14:09:03;20.90;73.30
22787;DHT22;63134;52.020;4.714;2023-05-07T14:11:49;20.70;74.40
22787;DHT22;63134;52.020;4.714;2023-05-07T14:14:36;20.70;75.30
22787;DHT22;63134;52.020;4.714;2023-05-07T14:17:22;20.70;76.10
22787;DHT22;63134;52.020;4.714;2023-05-07T14:20:11;20.70;76.70
22787;DHT22;63134;52.020;4.714;2023-05-07T14:22:58;20.70;77.30
22787;DHT22;63134;52.020;4.714;2023-05-07T14:25:46;20.60;77.30
22787;DHT22;63134;52.020;4.714;2023-05-07T14:28:32;20.60;77.90
22787;DHT22;63134;52.020;4.714;2023-05-07T14:31:18;20.50;78.50
22787;DHT22;63134;52.020;4.714;2023-05-07T14:34:04;20.40;78.90
22787;DHT22;63134;52.020;4.714;2023-05-07T14:36:50;20.40;79.80
22787;DHT22;63134;52.020;4.714;2023-05-07T14:39:35;20.30;80.10
22787;DHT22;63134;52.020;4.714;2023-05-07T14:42:21;20.20;80.50
22787;DHT22;63134;52.020;4.714;2023-05-07T14:45:06;20.20;81.80
22787;DHT22;63134;52.020;4.714;2023-05-07T14:47:52;20.20;81.50
22787;DHT22;63134;52.020;4.714;2023-05-07T14:50:37;20.20;81.70
22787;DHT22;63134;52.020;4.714;2023-05-07T14:53:25;20.10;81.90
22787;DHT22;63134;52.020;4.714;2023-05-07T14:56:11;20.20;82.20
22787;DHT22;63134;52.020;4.714;2023-05-07T14:58:57;20.30;82.50
22787;DHT22;63134;52.020;4.714;2023-05-07T15:01:43;20.30;82.20
22787;DHT22;63134;52.020;4.714;2023-05-07T15:04:31;20.40;82.50
22787;DHT22;63134;52.020;4.714;2023-05-07T15:07:16;20.60;83.00
22787;DHT22;63134;52.020;4.714;2023-05-07T15:10:02;20.70;81.90
22787;DHT22;63134;52.020;4.714;2023-05-07T15:12:49;20.80;81.30
22787;DHT22;63134;52.020;4.714;2023-05-07T15:15:35;21.00;80.60
22787;DHT22;63134;52.020;4.714;2023-05-07T15:18:21;21.10;80.10
22787;DHT22;63134;52.020;4.714;2023-05-07T15:21:07;21.20;80.50
22787;DHT22;63134;52.020;4.714;2023-05-07T15:23:54;21.30;79.60
22787;DHT22;63134;52.020;4.714;2023-05-07T15:26:39;21.40;79.50
22787;DHT22;63134;52.020;4.714;2023-05-07T15:29:25;21.40;79.90
22787;DHT22;63134;52.020;4.714;2023-05-07T15:32:18;21.40;79.70
22787;DHT22;63134;52.020;4.714;2023-05-07T15:35:05;21.40;80.10
22787;DHT22;63134;52.020;4.714;2023-05-07T15:37:51;21.40;80.40
22787;DHT22;63134;52.020;4.714;2023-05-07T15:40:36;21.50;80.60
22787;DHT22;63134;52.020;4.714;2023-05-07T15:43:27;21.50;80.50
22787;DHT22;63134;52.020;4.714;2023-05-07T15:46:13;21.50;80.00
22787;DHT22;63134;52.020;4.714;2023-05-07T15:49:05;21.60;80.30
22787;DHT22;63134;52.020;4.714;2023-05-07T15:51:55;21.70;80.30
22787;DHT22;63134;52.020;4.714;2023-05-07T15:54:42;21.70;80.00
22787;DHT22;63134;52.020;4.714;2023-05-07T15:57:29;21.70;80.50
22787;DHT22;63134;52.020;4.714;2023-05-07T16:00:15;21.70;80.30
22787;DHT22;63134;52.020;4.714;2023-05-07T16:03:01;21.80;80.70
22787;DHT22;63134;52.020;4.714;2023-05-07T16:05:47;21.90;80.50
22787;DHT22;63134;52.020;4.714;2023-05-07T16:08:33;21.90;79.50
22787;DHT22;63134;52.020;4.714;2023-05-07T16:11:18;21.90;79.60
22787;DHT22;63134;52.020;4.714;2023-05-07T16:14:04;21.80;79.30
22787;DHT22;63134;52.020;4.714;2023-05-07T16:16:49;21.80;79.30
22787;DHT22;63134;52.020;4.714;2023-05-07T16:19:37;21.70;78.90
22787;DHT22;63134;52.020;4.714;2023-05-07T16:22:22;21.60;79.00
22787;DHT22;63134;52.020;4.714;2023-05-07T16:25:11;21.40;79.40
22787;DHT22;63134;52.020;4.714;2023-05-07T16:27:59;21.30;79.80
22787;DHT22;63134;52.020;4.714;2023-05-07T16:30:44;21.30;80.60
22787;DHT22;63134;52.020;4.714;2023-05-07T16:33:30;21.20;80.50
22787;DHT22;63134;52.020;4.714;2023-05-07T16:36:18;21.20;80.10
22787;DHT22;63134;52.020;4.714;2023-05-07T16:39:05;21.10;79.60
22787;DHT22;63134;52.020;4.714;2023-05-07T16:41:52;21.00;79.80
22787;DHT22;63134;52.020;4.714;2023-05-07T16:44:38;20.90;79.80
22787;DHT22;63134;52.020;4.714;2023-05-07T16:47:23;20.80;80.10
22787;DHT22;63134;52.020;4.714;2023-05-07T16:50:09;20.80;80.30
22787;DHT22;63134;52.020;4.714;2023-05-07T16:52:56;20.80;80.70
22787;DHT22;63134;52.020;4.714;2023-05-07T16:55:45;20.70;80.60
22787;DHT22;63134;52.020;4.714;2023-05-07T16:58:33;20.70;80.80
22787;DHT22;63134;52.020;4.714;2023-05-07T17:01:18;20.70;80.80
22787;DHT22;63134;52.020;4.714;2023-05-07T17:04:04;20.70;81.10
22787;DHT22;63134;52.020;4.714;2023-05-07T17:06:49;20.70;80.90
22787;DHT22;63134;52.020;4.714;2023-05-07T17:09:35;20.70;81.20
22787;DHT22;63134;52.020;4.714;2023-05-07T17:12:21;20.70;81.20
22787;DHT22;63134;52.020;4.714;2023-05-07T17:15:07;20.80;81.20
22787;DHT22;63134;52.020;4.714;2023-05-07T17:17:52;20.80;81.10
22787;DHT22;63134;52.020;4.714;2023-05-07T17:20:38;20.70;80.90
22787;DHT22;63134;52.020;4.714;2023-05-07T17:23:24;20.70;81.30
22787;DHT22;63134;52.020;4.714;2023-05-07T17:26:13;20.70;81.40
22787;DHT22;63134;52.020;4.714;2023-05-07T17:28:59;20.60;81.30
22787;DHT22;63134;52.020;4.714;2023-05-07T17:31:45;20.60;81.70
22787;DHT22;63134;52.020;4.714;2023-05-07T17:34:30;20.60;82.00
22787;DHT22;63134;52.020;4.714;2023-05-07T17:37:17;20.50;81.90
22787;DHT22;63134;52.020;4.714;2023-05-07T17:40:02;20.40;82.10
22787;DHT22;63134;52.020;4.714;2023-05-07T17:42:49;20.40;82.60
22787;DHT22;63134;52.020;4.714;2023-05-07T17:45:39;20.30;82.70
22787;DHT22;63134;52.020;4.714;2023-05-07T17:48:24;20.30;83.30
22787;DHT22;63134;52.020;4.714;2023-05-07T17:51:10;20.20;83.70
22787;DHT22;63134;52.020;4.714;2023-05-07T17:53:55;20.20;83.90
22787;DHT22;63134;52.020;4.714;2023-05-07T17:56:41;20.10;83.70